createdAt,value
2019-02-15T00:02:11.449Z,102668.91
2019-02-15T00:04:43.548Z,102680.59
2019-02-15T00:07:15.538Z,102683.73
2019-02-15T00:09:47.646Z,102680.18
2019-02-15T00:12:19.866Z,102681.89
2019-02-15T00:14:51.988Z,102678.21
2019-02-15T00:17:41.277Z,102676.91
2019-02-15T00:20:30.496Z,102676.02
2019-02-15T00:23:02.571Z,102675.28
2019-02-15T00:25:34.697Z,102679.02
2019-02-15T00:28:07.952Z,102677.14
2019-02-15T00:30:39.825Z,102680.19
2019-02-15T00:33:14.351Z,102679.69
2019-02-15T00:35:59.229Z,102684.33
2019-02-15T00:38:31.344Z,102676.91
2019-02-15T00:41:04.980Z,102681.22
2019-02-15T00:43:36.907Z,102681.13
2019-02-15T00:46:30.908Z,102683.34
2019-02-15T00:49:03.988Z,102680.09
2019-02-15T00:51:57.751Z,102673.91
2019-02-15T00:54:44.558Z,102679.42
2019-02-15T00:57:34.244Z,102681.63
2019-02-15T01:00:26.212Z,102682.94
2019-02-15T01:03:24.673Z,102677.98
2019-02-15T01:06:09.124Z,102677.90
2019-02-15T01:08:57.682Z,102674.30
2019-02-15T01:11:33.336Z,102673.32
2019-02-15T01:14:05.296Z,102668.38
2019-02-15T01:16:37.160Z,102673.50
2019-02-15T01:19:09.032Z,102672.10
2019-02-15T01:21:40.858Z,102667.61
2019-02-15T01:24:13.717Z,102662.36
2019-02-15T01:26:47.375Z,102669.09
2019-02-15T01:29:37.081Z,102665.37
2019-02-15T01:32:26.197Z,102661.86
2019-02-15T01:35:18.483Z,102665.19
2019-02-15T01:38:07.625Z,102657.11
2019-02-15T01:40:56.333Z,102660.47
2019-02-15T01:43:54.776Z,102657.37
2019-02-15T01:46:42.157Z,102659.31
2019-02-15T01:49:14.405Z,102660.20
2019-02-15T01:51:46.340Z,102656.80
2019-02-15T01:54:18.764Z,102657.11
2019-02-15T01:56:52.667Z,102651.18
2019-02-15T01:59:25.075Z,102650.69
2019-02-15T02:01:57.428Z,102647.59
2019-02-15T02:04:29.644Z,102646.95
2019-02-15T02:07:01.914Z,102645.66
2019-02-15T02:09:34.151Z,102648.48
2019-02-15T02:12:06.483Z,102646.28
2019-02-15T02:14:38.636Z,102637.76
2019-02-15T02:17:10.709Z,102639.55
2019-02-15T02:19:42.832Z,102638.48
2019-02-15T02:22:15.199Z,102641.58
2019-02-15T02:24:47.617Z,102636.14
2019-02-15T02:27:19.848Z,102635.64
2019-02-15T02:29:52.117Z,102637.44
2019-02-15T02:32:24.463Z,102635.73
2019-02-15T02:34:56.325Z,102635.05
2019-02-15T02:37:34.145Z,102633.58
2019-02-15T02:40:06.832Z,102633.52
2019-02-15T02:42:39.111Z,102632.94
2019-02-15T02:45:11.378Z,102630.73
2019-02-15T02:47:43.322Z,102629.94
2019-02-15T02:50:15.165Z,102631.81
2019-02-15T02:52:47.083Z,102632.84
2019-02-15T02:55:18.933Z,102626.17
2019-02-15T02:57:50.932Z,102623.16
2019-02-15T03:00:22.730Z,102627.42
2019-02-15T03:02:54.783Z,102630.16
2019-02-15T03:05:26.621Z,102622.52
2019-02-15T03:07:58.503Z,102621.30
2019-02-15T03:10:30.379Z,102620.55
2019-02-15T03:13:02.265Z,102619.64
2019-02-15T03:15:34.447Z,102618.80
2019-02-15T03:18:06.408Z,102618.62
2019-02-15T03:20:38.349Z,102625.52
2019-02-15T03:23:13.563Z,102625.20
2019-02-15T03:25:48.421Z,102629.91
2019-02-15T03:28:20.437Z,102627.81
2019-02-15T03:30:52.424Z,102625.45
2019-02-15T03:33:24.460Z,102624.81
2019-02-15T03:35:59.091Z,102629.34
2019-02-15T03:38:44.885Z,102620.55
2019-02-15T03:41:30.435Z,102621.30
2019-02-15T03:44:02.456Z,102623.64
2019-02-15T03:46:34.397Z,102625.51
2019-02-15T03:49:06.235Z,102617.94
2019-02-15T03:51:38.207Z,102616.73
2019-02-15T03:54:10.136Z,102615.83
2019-02-15T03:56:43.159Z,102615.29
2019-02-15T03:59:16.040Z,102612.11
2019-02-15T04:01:51.319Z,102617.72
2019-02-15T04:04:23.505Z,102618.44
2019-02-15T04:06:55.462Z,102620.80
2019-02-15T04:09:29.173Z,102621.80
2019-02-15T04:12:04.157Z,102619.73
2019-02-15T04:14:37.754Z,102621.83
2019-02-15T04:17:12.868Z,102618.61
2019-02-15T04:19:46.563Z,102624.52
2019-02-15T04:22:18.486Z,102617.63
2019-02-15T04:24:56.730Z,102616.50
2019-02-15T04:27:28.670Z,102618.84
2019-02-15T04:30:00.719Z,102617.80
2019-02-15T04:32:36.800Z,102617.94
2019-02-15T04:35:12.026Z,102622.51
2019-02-15T04:37:45.732Z,102620.38
2019-02-15T04:40:18.899Z,102616.53
2019-02-15T04:42:52.498Z,102622.14
2019-02-15T04:45:29.521Z,102621.23
2019-02-15T04:48:04.120Z,102627.83
2019-02-15T04:50:42.359Z,102629.60
2019-02-15T04:53:14.630Z,102620.00
2019-02-15T04:55:47.936Z,102614.70
2019-02-15T04:58:20.466Z,102615.45
2019-02-15T05:00:55.339Z,102614.38
2019-02-15T05:03:32.140Z,102624.38
2019-02-15T05:06:08.497Z,102619.58
2019-02-15T05:08:42.353Z,102624.71
2019-02-15T05:11:14.386Z,102624.06
2019-02-15T05:13:46.290Z,102628.46
2019-02-15T05:16:20.268Z,102632.42
2019-02-15T05:18:52.250Z,102629.17
2019-02-15T05:21:24.345Z,102631.04
2019-02-15T05:23:56.613Z,102634.27
2019-02-15T05:26:33.639Z,102632.84
2019-02-15T05:29:06.913Z,102632.50
2019-02-15T05:31:38.860Z,102630.02
2019-02-15T05:34:10.707Z,102634.91
2019-02-15T05:36:43.496Z,102632.41
2019-02-15T05:39:17.141Z,102625.81
2019-02-15T05:41:55.146Z,102624.61
2019-02-15T05:44:30.759Z,102621.42
2019-02-15T05:47:05.669Z,102623.21
2019-02-15T05:49:41.257Z,102622.59
2019-02-15T05:52:14.740Z,102617.80
2019-02-15T05:54:48.944Z,102613.22
2019-02-15T05:57:29.323Z,102626.06
2019-02-15T06:00:06.311Z,102631.41
2019-02-15T06:02:40.039Z,102643.70
2019-02-15T06:05:14.426Z,102643.52
2019-02-15T06:07:48.854Z,102646.11
2019-02-15T06:10:22.107Z,102636.95
2019-02-15T06:12:56.136Z,102642.80
2019-02-15T06:15:30.935Z,102639.70
2019-02-15T06:18:03.386Z,102635.81
2019-02-15T06:20:36.797Z,102645.71
2019-02-15T06:23:12.614Z,102646.80
2019-02-15T06:25:47.557Z,102644.20
2019-02-15T06:28:19.677Z,102645.69
2019-02-15T06:30:51.933Z,102652.09
2019-02-15T06:33:23.981Z,102646.39
2019-02-15T06:35:57.820Z,102646.55
2019-02-15T06:38:34.829Z,102651.32
2019-02-15T06:41:03.693Z,102662.22
2019-02-15T06:43:35.643Z,102658.06
2019-02-15T06:46:07.676Z,102659.46
2019-02-15T06:48:40.609Z,102675.41
2019-02-15T06:51:12.916Z,102664.22
2019-02-15T06:53:46.747Z,102664.41
2019-02-15T06:56:32.773Z,102667.25
2019-02-15T06:59:22.133Z,102661.27
2019-02-15T07:02:24.793Z,102665.53
2019-02-15T07:05:17.456Z,102661.06
2019-02-15T07:07:49.923Z,102662.88
2019-02-15T07:10:21.878Z,102667.59
2019-02-15T07:12:53.720Z,102672.72
2019-02-15T07:15:33.409Z,102674.53
2019-02-15T07:18:06.633Z,102667.13
2019-02-15T07:20:40.563Z,102668.38
2019-02-15T07:23:12.379Z,102667.80
2019-02-15T07:25:45.827Z,102664.78
2019-02-15T07:28:17.869Z,102667.29
2019-02-15T07:30:49.765Z,102667.20
2019-02-15T07:33:23.420Z,102674.59
2019-02-15T07:35:55.285Z,102662.22
2019-02-15T07:38:27.241Z,102670.92
2019-02-15T07:40:59.130Z,102664.58
2019-02-15T07:43:31.004Z,102673.58
2019-02-15T07:46:03.017Z,102666.82
2019-02-15T07:48:34.923Z,102668.34
2019-02-15T07:51:09.686Z,102664.67
2019-02-15T07:53:40.385Z,102666.33
2019-02-15T07:56:12.271Z,102659.84
2019-02-15T07:58:44.302Z,102666.25
2019-02-15T08:01:16.116Z,102662.62
2019-02-15T08:03:48.071Z,102665.69
2019-02-15T08:06:20.134Z,102656.78
2019-02-15T08:08:51.975Z,102654.87
2019-02-15T08:11:23.853Z,102658.73
2019-02-15T08:13:55.776Z,102653.53
2019-02-15T08:16:27.660Z,102654.78
2019-02-15T08:18:59.712Z,102651.48
2019-02-15T08:21:31.688Z,102651.08
2019-02-15T08:24:03.602Z,102651.99
2019-02-15T08:26:35.464Z,102650.13
2019-02-15T08:29:07.526Z,102645.80
2019-02-15T08:31:39.412Z,102645.81
2019-02-15T08:34:11.346Z,102647.52
2019-02-15T08:36:43.302Z,102649.16
2019-02-15T08:39:15.204Z,102641.91
2019-02-15T08:42:00.748Z,102648.38
2019-02-15T08:44:20.684Z,102639.39
2019-02-15T08:46:52.584Z,102645.91
2019-02-15T08:49:24.493Z,102643.92
2019-02-15T08:51:56.388Z,102647.09
2019-02-15T08:54:28.279Z,102644.36
2019-02-15T08:57:00.319Z,102648.73
2019-02-15T08:59:32.252Z,102651.28
2019-02-15T09:02:19.988Z,102648.52
2019-02-15T09:04:51.992Z,102649.80
2019-02-15T09:07:23.828Z,102644.00
2019-02-15T09:09:55.675Z,102649.60
2019-02-15T09:12:27.517Z,102648.20
2019-02-15T09:14:59.354Z,102657.56
2019-02-15T09:17:31.198Z,102656.00
2019-02-15T09:20:03.000Z,102650.80
2019-02-15T09:22:34.901Z,102655.91
2019-02-15T09:25:06.942Z,102657.92
2019-02-15T09:28:09.504Z,102666.53
2019-02-15T09:30:41.574Z,102660.87
2019-02-15T09:33:13.681Z,102670.98
2019-02-15T09:35:45.531Z,102668.69
2019-02-15T09:38:17.391Z,102668.20
2019-02-15T09:40:49.402Z,102670.30
2019-02-15T09:43:21.307Z,102661.06
2019-02-15T09:45:53.274Z,102671.95
2019-02-15T09:48:25.135Z,102666.34
2019-02-15T09:50:57.084Z,102666.25
2019-02-15T09:53:28.975Z,102662.91
2019-02-15T09:56:00.891Z,102667.80
2019-02-15T09:58:32.969Z,102667.46
2019-02-15T10:01:04.910Z,102665.70
2019-02-15T10:03:36.874Z,102676.31
2019-02-15T10:06:08.732Z,102672.07
2019-02-15T10:08:40.683Z,102668.13
2019-02-15T10:11:12.541Z,102667.66
2019-02-15T10:13:44.501Z,102666.58
2019-02-15T10:16:16.463Z,102665.48
2019-02-15T10:18:48.306Z,102662.69
2019-02-15T10:21:20.228Z,102663.80
2019-02-15T10:23:52.271Z,102661.38
2019-02-15T10:26:24.159Z,102662.95
2019-02-15T10:28:57.047Z,102653.14
2019-02-15T10:31:29.840Z,102658.39
2019-02-15T10:34:01.767Z,102651.47
2019-02-15T10:36:33.710Z,102651.30
2019-02-15T10:39:07.105Z,102658.13
2019-02-15T10:41:39.125Z,102655.68
2019-02-15T10:44:11.003Z,102655.06
2019-02-15T10:46:42.884Z,102660.46
2019-02-15T10:49:14.835Z,102643.00
2019-02-15T10:51:46.875Z,102649.25
2019-02-15T10:54:18.806Z,102648.16
2019-02-15T10:56:50.702Z,102641.74
2019-02-15T10:59:22.658Z,102643.79
2019-02-15T11:01:54.731Z,102638.55
2019-02-15T11:04:26.817Z,102638.55
2019-02-15T11:06:58.808Z,102636.52
2019-02-15T11:09:30.719Z,102633.18
2019-02-15T11:12:02.583Z,102626.80
2019-02-15T11:14:34.493Z,102622.22
2019-02-15T11:17:06.518Z,102626.44
2019-02-15T11:19:38.414Z,102621.94
2019-02-15T11:22:10.303Z,102619.66
2019-02-15T11:24:42.808Z,102618.14
2019-02-15T11:27:14.700Z,102609.90
2019-02-15T11:29:47.575Z,102603.02
2019-02-15T11:32:19.399Z,102604.59
2019-02-15T11:34:51.335Z,102597.88
2019-02-15T11:37:23.347Z,102599.59
2019-02-15T11:39:55.311Z,102597.88
2019-02-15T11:42:27.571Z,102591.20
2019-02-15T11:44:59.428Z,102590.31
2019-02-15T11:47:31.651Z,102584.92
2019-02-15T11:50:03.743Z,102588.43
2019-02-15T11:52:36.016Z,102582.29
2019-02-15T11:55:08.393Z,102575.34
2019-02-15T11:57:40.318Z,102578.58
2019-02-15T12:00:18.454Z,102572.00
2019-02-15T12:02:50.135Z,102573.94
2019-02-15T12:05:22.051Z,102573.45
2019-02-15T12:07:55.842Z,102573.59
2019-02-15T12:10:28.809Z,102576.80
2019-02-15T12:13:00.761Z,102581.00
2019-02-15T12:15:32.717Z,102577.38
2019-02-15T12:18:05.469Z,102580.45
2019-02-15T12:20:37.307Z,102579.65
2019-02-15T12:23:14.395Z,102565.48
2019-02-15T12:25:46.347Z,102561.66
2019-02-15T12:28:18.503Z,102562.55
2019-02-15T12:30:50.400Z,102558.61
2019-02-15T12:33:22.505Z,102562.67
2019-02-15T12:35:54.482Z,102556.17
2019-02-15T12:38:26.581Z,102555.38
2019-02-15T12:40:58.598Z,102557.16
2019-02-15T12:43:30.791Z,102554.67
2019-02-15T12:46:02.951Z,102547.72
2019-02-15T12:48:34.886Z,102540.70
2019-02-15T12:51:06.770Z,102545.98
2019-02-15T12:53:38.734Z,102540.74
2019-02-15T12:56:10.740Z,102543.50
2019-02-15T12:58:42.925Z,102546.61
2019-02-15T13:01:14.823Z,102544.45
2019-02-15T13:03:54.238Z,102537.36
2019-02-15T13:06:28.613Z,102538.31
2019-02-15T13:09:00.030Z,102538.42
2019-02-15T13:11:31.974Z,102539.75
2019-02-15T13:14:04.048Z,102541.08
2019-02-15T13:16:36.102Z,102537.59
2019-02-15T13:19:09.326Z,102540.71
2019-02-15T13:21:43.260Z,102533.64
2019-02-15T13:24:15.176Z,102531.88
2019-02-15T13:26:48.022Z,102535.11
2019-02-15T13:29:20.446Z,102531.72
2019-02-15T13:31:52.539Z,102521.83
2019-02-15T13:34:24.784Z,102528.98
2019-02-15T13:36:56.979Z,102527.20
2019-02-15T13:39:28.895Z,102521.81
2019-02-15T13:42:00.916Z,102520.96
2019-02-15T13:44:32.930Z,102517.00
2019-02-15T13:47:04.950Z,102517.48
2019-02-15T13:49:36.790Z,102507.88
2019-02-15T13:52:53.346Z,102509.11
2019-02-15T13:55:27.782Z,102504.72
2019-02-15T13:58:00.272Z,102503.91
2019-02-15T14:00:34.035Z,102505.80
2019-02-15T14:03:06.078Z,102504.31
2019-02-15T14:05:41.228Z,102511.27
2019-02-15T14:08:15.108Z,102505.08
2019-02-15T14:10:53.030Z,102503.21
2019-02-15T14:13:24.965Z,102496.09
2019-02-15T14:15:56.801Z,102493.59
2019-02-15T14:18:28.636Z,102495.08
2019-02-15T14:21:00.565Z,102500.81
2019-02-15T14:23:32.477Z,102491.44
2019-02-15T14:26:07.988Z,102493.59
2019-02-15T14:28:39.946Z,102488.22
2019-02-15T14:31:14.000Z,102483.10
2019-02-15T14:33:45.838Z,102487.45
2019-02-15T14:36:17.731Z,102480.44
2019-02-15T14:38:51.218Z,102483.06
2019-02-15T14:41:25.991Z,102478.16
2019-02-15T14:43:58.425Z,102475.62
2019-02-15T14:46:30.305Z,102467.59
2019-02-15T14:49:02.189Z,102469.80
2019-02-15T14:51:35.326Z,102464.56
2019-02-15T14:54:07.203Z,102459.70
2019-02-15T14:56:39.270Z,102455.68
2019-02-15T14:59:11.314Z,102453.98
2019-02-15T15:01:43.230Z,102453.09
2019-02-15T15:04:16.111Z,102451.74
2019-02-15T15:06:47.910Z,102445.10
2019-02-15T15:09:19.868Z,102447.62
2019-02-15T15:11:52.908Z,102445.27
2019-02-15T15:14:24.888Z,102448.30
2019-02-15T15:16:56.703Z,102447.69
2019-02-15T15:19:28.563Z,102441.87
2019-02-15T15:22:00.480Z,102440.41
2019-02-15T15:24:32.464Z,102432.03
2019-02-15T15:27:04.400Z,102429.59
2019-02-15T15:29:36.335Z,102428.03
2019-02-15T15:32:08.188Z,102423.53
2019-02-15T15:34:40.810Z,102426.11
2019-02-15T15:37:16.611Z,102423.39
2019-02-15T15:39:46.182Z,102421.14
2019-02-15T15:42:17.980Z,102418.80
2019-02-15T15:44:49.835Z,102418.89
2019-02-15T15:47:21.636Z,102418.75
2019-02-15T15:49:53.635Z,102411.11
2019-02-15T15:52:25.497Z,102415.80
2019-02-15T15:54:57.367Z,102413.42
2019-02-15T15:57:29.188Z,102411.17
2019-02-15T16:00:01.055Z,102411.03
2019-02-15T16:02:34.754Z,102407.02
2019-02-15T16:05:07.049Z,102402.92
2019-02-15T16:07:38.985Z,102407.59
2019-02-15T16:10:12.714Z,102402.75
2019-02-15T16:12:44.629Z,102402.23
2019-02-15T16:15:16.499Z,102405.82
2019-02-15T16:17:48.333Z,102402.00
2019-02-15T16:20:20.241Z,102407.52
2019-02-15T16:22:52.442Z,102400.89
2019-02-15T16:25:24.325Z,102403.04
2019-02-15T16:27:56.293Z,102406.45
2019-02-15T16:30:30.253Z,102409.48
2019-02-15T16:33:05.329Z,102410.00
2019-02-15T16:35:37.323Z,102409.48
2019-02-15T16:38:12.065Z,102402.92
2019-02-15T16:40:44.052Z,102407.62
2019-02-15T16:43:16.290Z,102409.34
2019-02-15T16:45:49.944Z,102406.09
2019-02-15T16:48:23.664Z,102406.05
2019-02-15T16:50:55.677Z,102401.12
2019-02-15T16:53:27.649Z,102400.33
2019-02-15T16:56:09.597Z,102410.61
2019-02-15T16:58:46.405Z,102411.19
2019-02-15T17:01:18.552Z,102403.39
2019-02-15T17:03:50.844Z,102406.23
2019-02-15T17:06:23.372Z,102403.75
2019-02-15T17:08:55.612Z,102402.84
2019-02-15T17:11:27.735Z,102407.10
2019-02-15T17:13:59.718Z,102405.03
2019-02-15T17:16:34.836Z,102408.54
2019-02-15T17:19:06.814Z,102408.64
2019-02-15T17:21:38.918Z,102410.13
2019-02-15T17:24:11.103Z,102407.33
2019-02-15T17:26:43.228Z,102398.48
2019-02-15T17:29:15.336Z,102399.34
2019-02-15T17:32:07.814Z,102399.67
2019-02-15T17:34:39.840Z,102396.16
2019-02-15T17:37:11.808Z,102399.83
2019-02-15T17:39:43.991Z,102395.84
2019-02-15T17:42:17.688Z,102402.11
2019-02-15T17:44:49.862Z,102395.48
2019-02-15T17:47:25.208Z,102399.05
2019-02-15T17:49:57.480Z,102397.22
2019-02-15T17:52:29.798Z,102386.42
2019-02-15T17:55:07.318Z,102386.57
2019-02-15T17:57:45.512Z,102390.84
2019-02-15T18:00:28.747Z,102384.07
2019-02-15T18:03:00.849Z,102390.11
2019-02-15T18:05:42.612Z,102389.83
2019-02-15T18:08:28.193Z,102391.05
2019-02-15T18:11:04.408Z,102390.57
2019-02-15T18:13:39.314Z,102386.05
2019-02-15T18:16:23.914Z,102386.05
2019-02-15T18:18:58.889Z,102385.69
2019-02-15T18:21:34.483Z,102381.28
2019-02-15T18:24:39.386Z,102382.53
2019-02-15T18:31:01.016Z,102383.55
2019-02-15T18:33:38.850Z,102377.59
2019-02-15T18:45:54.914Z,102369.52
2019-02-15T18:49:28.069Z,102365.45
2019-02-15T18:52:16.163Z,102370.92
2019-02-15T18:54:49.250Z,102373.27
2019-02-15T18:57:53.146Z,102369.17
2019-02-15T19:00:29.303Z,102375.06
2019-02-15T19:03:13.485Z,102377.08
2019-02-15T19:05:49.313Z,102374.41
2019-02-15T19:08:23.551Z,102378.63
2019-02-15T19:10:58.082Z,102377.82
2019-02-15T19:13:43.466Z,102375.72
2019-02-15T19:16:27.959Z,102371.61
2019-02-15T19:19:07.666Z,102371.61
2019-02-15T19:21:43.074Z,102370.11
2019-02-15T19:24:15.803Z,102364.93
2019-02-15T19:26:48.187Z,102367.72
2019-02-15T19:29:20.526Z,102363.20
2019-02-15T19:31:55.727Z,102365.82
2019-02-15T19:34:28.739Z,102363.42
2019-02-15T19:37:11.537Z,102367.72
2019-02-15T19:39:45.506Z,102371.48
2019-02-15T19:42:55.603Z,102369.84
2019-02-15T19:45:46.431Z,102366.52
2019-02-15T19:49:12.564Z,102363.81
2019-02-15T19:52:17.864Z,102366.58
2019-02-15T19:55:40.249Z,102362.14
2019-02-15T21:39:51.130Z,102284.97
2019-02-15T21:43:01.796Z,102278.83
2019-02-15T21:46:02.552Z,102274.55
2019-02-15T21:49:15.374Z,102265.55
2019-02-15T21:51:50.751Z,102270.06
2019-02-15T21:54:55.094Z,102273.92
2019-02-15T21:57:32.755Z,102266.88
2019-02-15T22:00:44.199Z,102260.28
2019-02-15T22:03:58.672Z,102263.72
2019-02-15T22:07:14.026Z,102259.86
2019-02-15T22:10:28.371Z,102262.41
2019-02-15T22:13:08.882Z,102262.28
2019-02-15T22:15:44.960Z,102267.50
2019-02-15T22:18:17.171Z,102261.22
2019-02-15T22:20:52.786Z,102261.56
2019-02-15T22:23:27.049Z,102262.45
2019-02-15T22:26:02.007Z,102266.00
2019-02-15T22:28:34.422Z,102252.67
2019-02-15T22:31:08.315Z,102254.90
2019-02-15T22:33:42.927Z,102248.44
2019-02-15T22:36:15.111Z,102251.53
2019-02-15T22:39:09.506Z,102247.95
2019-02-15T22:41:41.998Z,102242.73
2019-02-15T22:44:15.557Z,102246.00
2019-02-15T22:46:50.100Z,102245.45
2019-02-15T22:49:25.989Z,102239.23
2019-02-15T22:52:00.687Z,102241.38
2019-02-15T22:54:32.641Z,102238.97
2019-02-15T22:57:04.639Z,102235.39
2019-02-15T22:59:36.595Z,102237.78
2019-02-15T23:02:08.948Z,102235.10
2019-02-15T23:04:47.644Z,102231.84
2019-02-15T23:07:24.076Z,102233.91
2019-02-15T23:09:56.195Z,102233.42
2019-02-15T23:12:30.013Z,102234.73
2019-02-15T23:15:05.221Z,102237.69
2019-02-15T23:17:37.426Z,102244.53
2019-02-15T23:20:12.338Z,102244.81
2019-02-15T23:22:44.255Z,102249.55
2019-02-15T23:25:19.091Z,102243.27
2019-02-15T23:27:51.077Z,102241.10
2019-02-15T23:30:23.694Z,102245.80
2019-02-15T23:33:01.740Z,102245.17
2019-02-15T23:35:37.195Z,102247.14
2019-02-15T23:38:12.571Z,102238.52
2019-02-15T23:40:44.999Z,102240.91
2019-02-15T23:43:20.385Z,102232.55
2019-02-15T23:45:52.938Z,102238.86
2019-02-15T23:48:29.727Z,102233.08
2019-02-15T23:51:01.581Z,102230.80
2019-02-15T23:53:41.299Z,102237.70
2019-02-15T23:56:16.745Z,102236.69
2019-02-15T23:58:49.348Z,102238.23
